Independence — WDD6659 — position and weather

sailwx.info

Track history (hours):
 
Tides and Currents Weather Stations Pressure Air Temp Water Temp Dewpoint Dewpoint Depression Visibility Wind Speed Wind Dir Waves Ship Positions

Independence

Owner: Sortwell, Inc. DBA AmNav Maritime Services, Oakland, CA. More information available from US FCC via Universal Licensing System and Coast Guard Vessel Documentation Center.

Last reported at 2016-Dec-09 01:33 UTC. Time now 2016-Dec-10 10:51 UTC.
Position N 33°44' W 118°17'.

Length 24 m; draft 4.9 m.

Type: Tug. MMSI: 367175860.

Date/timePositionNaut miles runAvg speedWind from/ knotsBaromVisibWave heightAir tempDewpointWater temp
2016-Dec-09 01:33N 33°44' W 118°17'0 0.5
2016-Dec-09 00:33N 33°45' W 118°17'1 0.9
2016-Dec-08 23:33N 33°44' W 118°17'2 0.3
2016-Dec-08 16:31N 33°45' W 118°16'4 1.9
2016-Dec-08 14:32N 33°44' W 118°11'2 0.3
2016-Dec-08 08:11N 33°45' W 118°13'  
2016-Dec-05 15:18N 33°44' W 118°16'4 4.8
2016-Dec-05 14:23N 33°44' W 118°11'0 0.5
2016-Dec-05 13:29N 33°44' W 118°12'3 3.6
2016-Dec-05 12:33N 33°44' W 118°16'1 0.8
2016-Dec-05 11:32N 33°44' W 118°17'0 0.0
2016-Dec-05 10:33N 33°44' W 118°17'0 0.0
2016-Dec-05 09:33N 33°44' W 118°17'0 0.0
2016-Dec-05 08:32N 33°44' W 118°17'0 0.0
2016-Dec-05 07:33N 33°44' W 118°17'0 0.0
2016-Dec-05 06:30N 33°44' W 118°17'0 0.0
2016-Dec-05 05:24N 33°44' W 118°17'0 0.0
2016-Dec-04 23:28N 33°44' W 118°17'0 0.0
2016-Dec-04 18:08N 33°44' W 118°17'0 0.0
2016-Dec-04 16:31N 33°44' W 118°17'0 0.0
2016-Dec-04 15:32N 33°44' W 118°17'3 1.3
2016-Dec-04 13:33N 33°44' W 118°13'1 0.8
2016-Dec-04 12:33N 33°45' W 118°13'2 2.0
2016-Dec-04 11:33N 33°43' W 118°14'2 2.2
2016-Dec-04 10:32N 33°44' W 118°17'0 0.0
2016-Dec-04 09:33N 33°44' W 118°17'0 0.0
2016-Dec-04 08:33N 33°44' W 118°17'3 2.5
2016-Dec-04 07:33N 33°44' W 118°13'2 1.9
2016-Dec-04 06:33N 33°45' W 118°13'3 1.6
2016-Dec-04 04:25N 33°44' W 118°17'1 0.6
2016-Dec-04 02:30N 33°44' W 118°15'2 2.1
2016-Dec-04 01:33N 33°45' W 118°13'3 0.1
2016-Dec-02 01:33N 33°45' W 118°16'1 0.5
2016-Dec-01 23:03N 33°44' W 118°17'0 0.0
2016-Dec-01 22:30N 33°44' W 118°17'2 1.9
2016-Dec-01 21:22N 33°43' W 118°14'2 0.1
2016-Dec-01 03:13N 33°44' W 118°17'3 3.4
2016-Dec-01 02:29N 33°46' W 118°15'1 1.4
2016-Dec-01 01:32N 33°45' W 118°16'3 2.6
2016-Dec-01 00:33N 33°43' W 118°15'2 0.1
2016-Nov-30 02:27N 33°44' W 118°17'2 2.4
2016-Nov-30 01:33N 33°43' W 118°14'3 2.3
2016-Nov-30 00:26N 33°44' W 118°11'2 2.0
2016-Nov-29 23:29N 33°45' W 118°13'0 0.4
2016-Nov-29 22:32N 33°45' W 118°13'3 0.4
2016-Nov-29 14:06N 33°44' W 118°17'0 0.0
2016-Nov-29 13:24N 33°44' W 118°17'1 0.8
2016-Nov-29 12:33N 33°44' W 118°16'  
Track history (hours):
 
Tides and Currents Weather Stations Pressure Air Temp Water Temp Dewpoint Dewpoint Depression Visibility Wind Speed Wind Dir Waves Ship Positions

Independence

Owner: Sortwell, Inc. DBA AmNav Maritime Services, Oakland, CA. More information available from US FCC via Universal Licensing System and Coast Guard Vessel Documentation Center.

Last reported at 2016-Dec-09 01:33 UTC. Time now 2016-Dec-10 10:51 UTC.
Position N 33°44' W 118°17'.

Length 24 m; draft 4.9 m.

Type: Tug. MMSI: 367175860.

Date/timePositionNaut miles runAvg speedWind from/ knotsBaromVisibWave heightAir tempDewpointWater temp
2016-Dec-09 01:33N 33°44' W 118°17'0 0.5
2016-Dec-09 00:33N 33°45' W 118°17'1 0.9
2016-Dec-08 23:33N 33°44' W 118°17'2 0.3
2016-Dec-08 16:31N 33°45' W 118°16'4 1.9
2016-Dec-08 14:32N 33°44' W 118°11'2 0.3
2016-Dec-08 08:11N 33°45' W 118°13'  
2016-Dec-05 15:18N 33°44' W 118°16'4 4.8
2016-Dec-05 14:23N 33°44' W 118°11'0 0.5
2016-Dec-05 13:29N 33°44' W 118°12'3 3.6
2016-Dec-05 12:33N 33°44' W 118°16'1 0.8
2016-Dec-05 11:32N 33°44' W 118°17'0 0.0
2016-Dec-05 10:33N 33°44' W 118°17'0 0.0
2016-Dec-05 09:33N 33°44' W 118°17'0 0.0
2016-Dec-05 08:32N 33°44' W 118°17'0 0.0
2016-Dec-05 07:33N 33°44' W 118°17'0 0.0
2016-Dec-05 06:30N 33°44' W 118°17'0 0.0
2016-Dec-05 05:24N 33°44' W 118°17'0 0.0
2016-Dec-04 23:28N 33°44' W 118°17'0 0.0
2016-Dec-04 18:08N 33°44' W 118°17'0 0.0
2016-Dec-04 16:31N 33°44' W 118°17'0 0.0
2016-Dec-04 15:32N 33°44' W 118°17'3 1.3
2016-Dec-04 13:33N 33°44' W 118°13'1 0.8
2016-Dec-04 12:33N 33°45' W 118°13'2 2.0
2016-Dec-04 11:33N 33°43' W 118°14'2 2.2
2016-Dec-04 10:32N 33°44' W 118°17'0 0.0
2016-Dec-04 09:33N 33°44' W 118°17'0 0.0
2016-Dec-04 08:33N 33°44' W 118°17'3 2.5
2016-Dec-04 07:33N 33°44' W 118°13'2 1.9
2016-Dec-04 06:33N 33°45' W 118°13'3 1.6
2016-Dec-04 04:25N 33°44' W 118°17'1 0.6
2016-Dec-04 02:30N 33°44' W 118°15'2 2.1
2016-Dec-04 01:33N 33°45' W 118°13'3 0.1
2016-Dec-02 01:33N 33°45' W 118°16'1 0.5
2016-Dec-01 23:03N 33°44' W 118°17'0 0.0
2016-Dec-01 22:30N 33°44' W 118°17'2 1.9
2016-Dec-01 21:22N 33°43' W 118°14'2 0.1
2016-Dec-01 03:13N 33°44' W 118°17'3 3.4
2016-Dec-01 02:29N 33°46' W 118°15'1 1.4
2016-Dec-01 01:32N 33°45' W 118°16'3 2.6
2016-Dec-01 00:33N 33°43' W 118°15'2 0.1
2016-Nov-30 02:27N 33°44' W 118°17'2 2.4
2016-Nov-30 01:33N 33°43' W 118°14'3 2.3
2016-Nov-30 00:26N 33°44' W 118°11'2 2.0
2016-Nov-29 23:29N 33°45' W 118°13'0 0.4
2016-Nov-29 22:32N 33°45' W 118°13'3 0.4
2016-Nov-29 14:06N 33°44' W 118°17'0 0.0
2016-Nov-29 13:24N 33°44' W 118°17'1 0.8
2016-Nov-29 12:33N 33°44' W 118°16'  

Dump ship's entire track history